Latest Weather Observations for High Range (Wanganderry)

IDN60801

Issued at 2:05 pm EDT Sunday 23 November 2014 (issued every 30 minutes, with the page automatically refreshed every 10 minutes)

About weather observations | Map of weather stations | Latest weather observations for NSW | Other Formats
Station Details ID: 068262 Name: HIGH RANGE AWS (WANGANDERRY) Lat: -34.33 Lon: 150.27 Height: 813.6 m
Data from the previous 72 hours. | See also: Recent months for locations in New South Wales
Date/Time
EDT
Temp
°C
App
Temp
°C
Dew
Point
Rel
Hum
%
Delta-T
°C
Wind Press
QNH
hPa
Press
MSL
hPa
Rain
since 9 am
mm
Dir
 
Spd
km/h
Gust
km/h
Spd
kts
Gust
kts
23/02:04pm 37.2 30.8 5.3 14 18.0 W 28 46 15 25 1013.8 1011.1 0.0
23/02:00pm 36.8 31.3 5.9 15 17.5 NW 24 39 13 21 1013.8 1011.1 0.0
23/01:30pm 36.9 29.7 6.0 15 17.5 WSW 33 41 18 22 1014.0 1011.3 0.0
23/01:00pm 36.6 31.5 5.8 15 17.4 WNW 22 37 12 20 1014.5 1011.7 0.0
23/12:30pm 37.1 32.8 7.1 16 17.3 WNW 19 32 10 17 1014.6 1011.8 0.0
23/12:00pm 35.6 31.8 9.2 20 15.6 NNW 19 26 10 14 1014.9 1012.2 0.0
23/11:30am 34.8 30.9 8.5 20 15.4 N 19 30 10 16 1015.1 1012.4 0.0
23/11:00am 34.7 30.2 8.4 20 15.3 N 22 30 12 16 1015.3 1012.6 0.0
23/10:30am 33.1 28.6 7.1 20 14.7 N 20 30 11 16 1015.4 1012.7 0.0
23/10:00am 32.7 28.5 7.5 21 14.4 N 19 24 10 13 1015.5 1012.8 0.0
23/09:30am 32.2 28.7 7.1 21 14.2 N 15 22 8 12 1015.8 1013.0 0.0
23/09:00am 30.9 27.4 7.4 23 13.3 N 15 22 8 12 1015.8 1013.0 0.0
23/08:30am 29.7 27.1 7.6 25 12.4 N 11 17 6 9 1015.8 1013.0 0.0
23/08:00am 28.4 24.7 6.5 25 12.0 N 15 20 8 11 1015.7 1012.9 0.0
23/07:30am 27.8 24.2 6.6 26 11.6 NNW 15 19 8 10 1015.3 1012.6 0.0
23/07:00am 26.4 23.3 5.4 26 11.2 NW 11 17 6 9 1015.1 1012.4 0.0
23/06:30am 25.2 21.6 4.9 27 10.7 NNW 13 15 7 8 1014.9 1012.2 0.0
23/06:00am 24.6 20.7 5.4 29 10.1 NNW 15 19 8 10 1014.9 1012.2 0.0
23/05:30am 24.7 20.6 6.0 30 10.0 N 17 20 9 11 1014.5 1011.7 0.0
23/05:00am 24.4 20.5 7.1 33 9.4 N 17 20 9 11 1014.5 1011.7 0.0
23/04:30am 23.8 20.1 7.8 36 8.8 N 17 19 9 10 1014.2 1011.5 0.0
23/04:00am 23.9 21.2 9.1 39 8.3 N 13 17 7 9 1014.2 1011.5 0.0
23/03:30am 23.4 21.2 9.4 41 7.9 N 11 13 6 7 1014.4 1011.6 0.0
23/03:00am 23.3 21.2 9.7 42 7.7 N 11 13 6 7 1014.5 1011.7 0.0
23/02:30am 23.2 21.1 9.6 42 7.7 N 11 13 6 7 1014.5 1011.7 0.0
23/02:00am 23.4 21.6 10.8 45 7.3 NNW 11 15 6 8 1014.9 1012.2 0.0
23/01:30am 22.4 21.1 13.7 58 5.2 NNW 13 15 7 8 1015.1 1012.4 0.0
23/01:00am 21.8 21.2 14.7 64 4.3 N 11 15 6 8 1015.3 1012.6 0.0
23/12:30am 20.5 20.0 14.8 70 3.5 N 11 13 6 7 1015.7 1012.9 0.0
23/12:00am 20.3 19.2 14.4 69 3.6 N 13 15 7 8 1016.0 1013.3 0.0
 
Date/Time
EDT
Temp
°C
App
Temp
°C
Dew
Point
Rel
Hum
%
Delta-T
°C
Wind Press
QNH
hPa
Press
MSL
hPa
Rain
since 9 am
mm
Dir
 
Spd
km/h
Gust
km/h
Spd
kts
Gust
kts
22/11:30pm 20.0 19.1 14.8 72 3.2 N 13 15 7 8 1016.1 1013.4 0.0
22/11:00pm 19.1 18.9 14.6 75 2.7 N 9 11 5 6 1016.2 1013.5 0.0
22/10:30pm 19.6 19.4 14.8 74 2.9 NNW 9 11 5 6 1016.3 1013.6 0.0
22/10:00pm 20.3 20.1 14.7 70 3.4 N 9 9 5 5 1016.3 1013.6 0.0
22/09:30pm 21.0 20.9 14.9 68 3.7 N 9 9 5 5 1016.3 1013.6 0.0
22/09:00pm 21.1 21.3 14.7 67 3.9 N 7 9 4 5 1016.1 1013.4 0.0
22/08:30pm 21.4 21.2 14.6 65 4.1 N 9 11 5 6 1015.8 1013.0 0.0
22/08:00pm 21.9 21.2 14.3 62 4.6 NNE 11 13 6 7 1015.2 1012.5 0.0
22/07:30pm 23.2 22.0 13.9 56 5.6 NE 13 17 7 9 1014.8 1012.0 0.0
22/07:00pm 24.1 23.0 14.2 54 6.0 NE 13 15 7 8 1014.6 1011.8 0.0
22/06:30pm 24.9 23.7 14.1 51 6.6 NE 13 20 7 11 1014.4 1011.6 0.0
22/06:00pm 26.7 25.2 14.1 46 7.8 NNE 15 20 8 11 1013.8 1011.1 0.0
22/05:30pm 26.4 25.6 13.9 46 7.7 NE 11 15 6 8 1013.9 1011.2 0.0
22/05:00pm 26.8 24.8 13.9 45 7.9 NE 17 22 9 12 1013.7 1010.9 0.0
22/04:30pm 28.1 25.6 13.6 41 8.9 NE 19 24 10 13 1013.6 1010.8 0.0
22/04:00pm 29.0 26.8 13.2 37 9.7 NNE 17 24 9 13 1013.5 1010.7 0.0
22/03:30pm 28.6 26.7 12.9 38 9.6 NNE 15 24 8 13 1013.7 1010.9 0.0
22/03:00pm 28.3 25.5 12.6 38 9.5 N 19 24 10 13 1014.1 1011.4 0.0
22/02:30pm 29.1 26.2 12.9 37 9.9 NE 20 30 11 16 1014.1 1011.4 0.0
22/02:00pm 27.2 25.6 12.8 41 8.7 N 13 19 7 10 1014.8 1012.0 0.0
22/01:30pm 27.1 25.6 13.1 42 8.5 N 13 19 7 10 1015.3 1012.6 0.0
22/01:00pm 26.9 25.5 13.3 43 8.3 N 13 19 7 10 1015.7 1012.9 0.0
22/12:30pm 25.5 24.0 13.0 46 7.5 NE 13 20 7 11 1015.9 1013.1 0.0
22/12:00pm 24.8 23.8 13.4 49 6.9 NE 11 20 6 11 1016.3 1013.6 0.0
22/11:30am 23.4 21.5 13.0 52 6.2 N 15 22 8 12 1016.4 1013.7 0.0
22/11:00am 22.1 21.0 13.2 57 5.3 NNE 11 17 6 9 1016.9 1014.2 0.0
22/10:30am 20.2 17.8 12.7 62 4.4 NNE 17 26 9 14 1016.9 1014.2 0.0
22/10:00am 19.3 17.1 13.3 68 3.5 NNE 17 24 9 13 1017.3 1014.6 0.0
22/09:30am 17.7 13.6 12.8 73 2.8 NNE 26 33 14 18 1017.1 1014.4 0.0
22/09:00am 16.5 13.8 13.6 83 1.7 NE 20 28 11 15 1017.5 1014.8 0.0
22/08:30am 15.0 14.0 13.5 91 0.9 NNE 11 19 6 10 1017.9 1015.2 0.0
22/08:00am 14.3 12.6 13.5 95 0.5 NNE 15 24 8 13 1017.4 1014.7 0.0
22/07:30am 14.0 11.9 13.7 98 0.2 NNE 17 19 9 10 1016.8 1014.1 0.0
22/07:00am 13.9 12.2 13.6 98 0.2 NNE 15 20 8 11 1016.9 1014.2 0.0
22/06:30am 13.8 12.1 13.5 98 0.2 NE 15 19 8 10 1016.7 1014.0 0.0
22/06:00am 13.8 12.4 13.5 98 0.2 NE 13 17 7 9 1016.3 1013.6 0.0
22/05:30am 13.9 12.6 13.6 98 0.2 NNE 13 17 7 9 1016.1 1013.4 0.0
22/05:00am 14.0 12.7 13.7 98 0.2 NE 13 17 7 9 1016.1 1013.4 0.0
22/04:30am 14.2 13.3 13.7 97 0.3 NNE 11 15 6 8 1016.0 1013.3 0.0
22/04:00am 14.4 13.5 13.6 95 0.5 NE 11 15 6 8 1015.5 1012.8 0.0
22/03:30am 14.5 13.5 13.5 94 0.6 NE 11 15 6 8 1015.5 1012.8 0.0
22/03:00am 14.7 14.2 13.7 94 0.6 ENE 9 13 5 7 1015.7 1012.9 0.0
22/02:30am 14.7 14.7 13.7 94 0.6 ESE 6 7 3 4 1015.9 1013.1 0.0
22/02:00am 14.6 14.7 13.8 95 0.5 ESE 6 6 3 3 1016.1 1013.4 0.0
22/01:30am 14.6 14.6 13.6 94 0.6 SSE 6 7 3 4 1016.3 1013.6 0.0
22/01:00am 14.9 15.0 13.8 93 0.6 SE 6 7 3 4 1016.4 1013.7 0.0
22/12:30am 15.1 15.2 13.8 92 0.8 SE 6 9 3 5 1016.8 1014.1 0.0
22/12:00am 15.2 15.1 13.9 92 0.8 ESE 7 9 4 5 1016.8 1014.1 0.0
 
Date/Time
EDT
Temp
°C
App
Temp
°C
Dew
Point
Rel
Hum
%
Delta-T
°C
Wind Press
QNH
hPa
Press
MSL
hPa
Rain
since 9 am
mm
Dir
 
Spd
km/h
Gust
km/h
Spd
kts
Gust
kts
21/11:30pm 15.2 15.2 14.1 93 0.6 SE 7 9 4 5 1016.7 1014.0 0.0
21/11:00pm 15.0 14.6 14.0 94 0.6 SE 9 13 5 7 1016.7 1014.0 0.0
21/10:30pm 15.1 14.3 14.1 94 0.6 S 11 13 6 7 1016.6 1013.9 0.0
21/10:00pm 15.2 13.7 14.1 93 0.6 SSE 15 20 8 11 1016.2 1013.5 0.0
21/09:30pm 15.6 14.2 14.5 93 0.7 SSE 15 19 8 10 1015.5 1012.8 0.0
21/09:00pm 15.8 13.9 14.2 90 0.9 S 17 20 9 11 1015.0 1012.3 0.0
21/08:30pm 17.3 14.3 13.8 80 2.1 S 22 28 12 15 1014.4 1011.6 0.0
21/08:00pm 21.5 18.8 11.8 54 5.6 S 17 20 9 11 1013.6 1010.8 0.0
21/07:30pm 24.7 21.0 9.4 38 8.7 WSW 19 24 10 13 1013.2 1010.4 0.0
21/07:00pm 26.1 21.3 9.0 34 9.7 WSW 24 33 13 18 1012.6 1009.8 0.0
21/06:30pm 27.0 22.8 8.4 31 10.5 W 20 32 11 17 1012.1 1009.3 0.0
21/06:00pm 27.6 23.1 8.5 30 10.8 W 22 35 12 19 1011.8 1009.0 0.0
21/05:30pm 27.7 23.2 7.0 27 11.4 W 20 32 11 17 1011.5 1008.7 0.0
21/05:00pm 28.0 23.6 7.3 27 11.5 WNW 20 33 11 18 1011.3 1008.5 0.0
21/04:30pm 29.6 24.7 8.6 27 12.0 W 24 44 13 24 1011.2 1008.4 0.0
21/04:00pm 27.9 22.8 7.7 28 11.3 W 24 41 13 22 1011.2 1008.4 0.0
21/03:30pm 30.3 25.8 8.7 26 12.4 WNW 22 37 12 20 1011.1 1008.3 0.0
21/03:00pm 30.2 23.6 6.1 22 13.3 WNW 30 46 16 25 1010.9 1008.1 0.0
21/02:30pm 29.6 22.5 5.6 22 13.1 WNW 32 48 17 26 1011.0 1008.2 0.0
21/02:18pm 30.8 24.6 6.0 21 13.7 NW 28 52 15 28 1011.0 1008.2 0.0
21/02:00pm 29.9 24.3 7.2 24 12.7 WNW 26 43 14 23 1011.0 1008.2 0.0
21/01:30pm 30.0 23.8 6.0 22 13.2 WNW 28 43 15 23 1011.0 1008.2 0.0
21/01:02pm 30.3 24.0 5.6 21 13.5 WNW 28 50 15 27 1011.1 1008.3 0.0
21/01:00pm 30.4 24.2 6.3 22 13.3 WNW 28 43 15 23 1011.2 1008.4 0.0
21/12:35pm 29.1 22.8 5.9 23 12.7 NW 28 48 15 26 1011.3 1008.5 0.0
21/12:30pm 29.2 22.1 5.3 22 12.9 WNW 32 48 17 26 1011.3 1008.5 0.0
21/12:00pm 29.5 22.4 5.6 22 13.0 WNW 32 52 17 28 1011.4 1008.6 0.0
21/11:30am 29.1 21.9 5.2 22 12.9 WNW 32 46 17 25 1011.4 1008.6 0.0
21/11:00am 28.5 21.4 3.4 20 13.1 WNW 30 50 16 27 1011.4 1008.6 0.0
21/10:47am 28.8 22.2 4.3 21 13.0 WNW 28 46 15 25 1011.2 1008.4 0.0
21/10:30am 28.4 22.1 4.0 21 12.8 WNW 26 46 14 25 1011.3 1008.5 0.0
21/10:00am 27.7 21.5 4.1 22 12.4 WNW 26 41 14 22 1011.1 1008.3 0.0
21/09:30am 27.7 22.9 4.7 23 12.2 WNW 19 28 10 15 1011.3 1008.5 0.0
21/09:00am 27.1 23.2 3.6 22 12.2 NW 13 20 7 11 1011.1 1008.3 0.0
21/08:30am 26.6 23.3 4.4 24 11.6 NNW 11 17 6 9 1011.0 1008.2 0.0
21/08:00am 25.6 22.3 4.7 26 11.0 N 11 17 6 9 1011.0 1008.2 0.0
21/07:30am 24.6 22.4 5.4 29 10.1 N 6 9 3 5 1010.8 1008.0 0.0
21/07:00am 23.4 20.4 3.9 28 10.0 NNW 9 15 5 8 1010.7 1007.9 0.0
21/06:30am 21.9 18.5 4.0 31 9.1 N 11 17 6 9 1010.7 1007.9 0.0
21/06:00am 20.7 18.5 6.3 39 7.6 N 7 13 4 7 1010.5 1007.6 0.0
21/05:30am 20.6 18.2 6.9 41 7.3 NNE 9 11 5 6 1010.2 1007.4 0.0
21/05:00am 20.8 18.8 7.1 41 7.3 N 7 15 4 8 1010.7 1007.9 0.0
21/04:30am 21.5 18.1 5.8 36 8.2 W 13 19 7 10 1011.0 1008.2 0.0
21/04:00am 21.7 18.0 4.7 33 8.7 W 13 17 7 9 1010.5 1007.6 0.0
21/03:30am 21.4 16.8 8.3 43 7.1 WSW 22 33 12 18 1010.3 1007.5 0.0
21/03:22am 21.9 15.9 7.0 38 8.0 WSW 28 33 15 18 1010.2 1007.4 0.0
21/03:00am 22.4 20.0 5.4 33 8.9 NNW 7 9 4 5 1009.8 1007.0 0.0
21/02:30am 22.6 19.7 6.4 35 8.6 NNW 11 15 6 8 1010.1 1007.3 0.0
21/02:00am 22.9 18.9 6.6 35 8.7 N 17 22 9 12 1010.6 1007.8 0.0
21/01:30am 23.2 18.7 6.9 35 8.8 N 20 41 11 22 1010.6 1007.8 0.0
21/01:00am 22.0 18.8 9.9 46 6.8 N 17 19 9 10 1010.8 1008.0 0.0
21/12:30am 22.2 19.0 10.0 46 6.9 N 17 20 9 11 1011.1 1008.3 0.0
21/12:00am 21.4 20.2 11.7 54 5.6 N 9 13 5 7 1011.5 1008.7 0.0
 
Date/Time
EDT
Temp
°C
App
Temp
°C
Dew
Point
Rel
Hum
%
Delta-T
°C
Wind Press
QNH
hPa
Press
MSL
hPa
Rain
since 9 am
mm
Dir
 
Spd
km/h
Gust
km/h
Spd
kts
Gust
kts
20/11:30pm 20.9 20.2 13.1 61 4.6 N 9 11 5 6 1012.0 1009.2 0.0
20/11:00pm 20.1 20.4 14.5 70 3.4 NNE 6 9 3 5 1012.5 1009.7 0.0
20/10:30pm 20.0 20.2 14.1 69 3.5 NNE 6 7 3 4 1012.7 1010.0 0.0
20/10:00pm 20.2 19.8 12.9 63 4.3 NNE 7 7 4 4 1012.9 1010.2 0.0
20/09:30pm 20.9 20.1 11.8 56 5.3 NNE 7 9 4 5 1012.9 1010.2 0.0
20/09:00pm 22.1 19.9 7.9 40 7.7 NE 9 13 5 7 1012.6 1009.8 0.0
20/08:30pm 25.0 21.3 4.7 27 10.6 NNW 13 19 7 10 1012.2 1009.4 0.0
20/08:00pm 26.0 22.3 4.5 25 11.3 NW 13 22 7 12 1012.0 1009.2 0.0
20/07:30pm 26.6 22.9 4.4 24 11.6 NW 13 19 7 10 1011.8 1009.0 0.0
20/07:00pm 27.3 22.8 4.4 23 12.1 WNW 17 26 9 14 1011.4 1008.6 0.0
20/06:30pm 28.2 23.2 3.8 21 12.8 WNW 19 32 10 17 1011.2 1008.4 0.0
20/06:00pm 29.0 23.8 3.8 20 13.3 NNW 20 28 11 15 1011.0 1008.2 0.0
20/05:30pm 28.2 23.7 2.4 19 13.2 NW 15 26 8 14 1011.1 1008.3 0.0
20/05:00pm 29.9 25.9 3.0 18 14.1 WNW 13 22 7 12 1011.1 1008.3 0.0
20/04:30pm 29.1 24.1 4.6 21 13.1 W 20 28 11 15 1011.3 1008.5 0.0
20/04:00pm 29.2 24.3 5.3 22 12.9 WSW 20 30 11 16 1011.6 1008.9 0.0
20/03:30pm 30.5 25.7 5.7 21 13.6 W 20 33 11 18 1011.9 1009.1 0.0
20/03:00pm 30.3 25.1 3.4 18 14.2 W 20 37 11 20 1012.4 1009.6 0.0
20/02:30pm 29.9 27.4 4.5 20 13.6 NNW 7 15 4 8 1012.7 1010.0 0.0

Other Formats:

Comma delimited format used in spreadsheet applications
http://www.bom.gov.au/fwo/IDN60801/IDN60801.99742.axf

JavaScript Object Notation format (JSON) in row-major order
http://www.bom.gov.au/fwo/IDN60801/IDN60801.99742.json